createdAt,value
2019-02-08T00:00:10.586Z,97696.72
2019-02-08T00:02:37.992Z,97699.18
2019-02-08T00:05:05.417Z,97702.05
2019-02-08T00:07:32.838Z,97704.09
2019-02-08T00:10:00.234Z,97708.09
2019-02-08T00:12:27.668Z,97715.43
2019-02-08T00:14:55.077Z,97714.09
2019-02-08T00:17:22.478Z,97720.73
2019-02-08T00:19:50.113Z,97720.95
2019-02-08T00:22:17.545Z,97701.05
2019-02-08T00:24:45.523Z,97703.50
2019-02-08T00:27:12.927Z,97699.17
2019-02-08T00:29:40.510Z,97703.35
2019-02-08T00:32:07.995Z,97704.20
2019-02-08T00:34:35.400Z,97709.99
2019-02-08T00:37:02.799Z,97710.80
2019-02-08T00:39:30.204Z,97707.40
2019-02-08T00:41:57.669Z,97698.66
2019-02-08T00:44:25.062Z,97710.31
2019-02-08T00:46:52.469Z,97706.87
2019-02-08T00:49:19.882Z,97700.88
2019-02-08T00:51:47.287Z,97700.03
2019-02-08T00:54:14.835Z,97696.63
2019-02-08T00:56:42.231Z,97687.05
2019-02-08T00:59:09.639Z,97679.22
2019-02-08T01:01:37.059Z,97681.85
2019-02-08T01:04:04.498Z,97677.14
2019-02-08T01:06:31.899Z,97683.78
2019-02-08T01:08:59.443Z,97681.29
2019-02-08T01:11:26.848Z,97671.74
2019-02-08T01:13:54.283Z,97674.55
2019-02-08T01:16:21.683Z,97671.70
2019-02-08T01:18:49.094Z,97681.85
2019-02-08T01:21:16.520Z,97680.77
2019-02-08T01:23:43.970Z,97673.75
2019-02-08T01:26:11.369Z,97681.96
2019-02-08T01:28:38.777Z,97681.50
2019-02-08T01:31:06.173Z,97678.38
2019-02-08T01:33:33.571Z,97688.66
2019-02-08T01:36:00.965Z,97690.66
2019-02-08T01:38:28.346Z,97680.73
2019-02-08T01:40:55.757Z,97682.85
2019-02-08T01:43:23.162Z,97686.81
2019-02-08T01:45:50.603Z,97691.67
2019-02-08T01:48:18.150Z,97686.73
2019-02-08T01:50:45.608Z,97680.09
2019-02-08T01:53:12.987Z,97678.47
2019-02-08T01:55:40.941Z,97669.60
2019-02-08T01:58:08.344Z,97673.39
2019-02-08T02:00:38.514Z,97670.77
2019-02-08T02:03:05.951Z,97663.85
2019-02-08T02:05:33.342Z,97671.64
2019-02-08T02:08:00.766Z,97673.22
2019-02-08T02:10:44.715Z,97668.80
2019-02-08T02:13:12.137Z,97681.56
2019-02-08T02:15:39.549Z,97687.70
2019-02-08T02:18:06.974Z,97679.00
2019-02-08T02:20:34.551Z,97688.80
2019-02-08T02:23:01.992Z,97686.03
2019-02-08T02:25:29.372Z,97685.08
2019-02-08T02:27:56.805Z,97682.06
2019-02-08T02:30:25.741Z,97675.99
2019-02-08T02:32:53.271Z,97662.17
2019-02-08T02:35:20.678Z,97658.55
2019-02-08T02:37:48.080Z,97647.50
2019-02-08T02:40:15.492Z,97648.19
2019-02-08T02:42:43.084Z,97648.61
2019-02-08T02:45:11.892Z,97649.70
2019-02-08T02:47:39.292Z,97651.77
2019-02-08T02:50:06.702Z,97655.25
2019-02-08T02:52:34.144Z,97648.34
2019-02-08T02:55:01.607Z,97655.63
2019-02-08T02:57:29.053Z,97650.94
2019-02-08T02:59:56.443Z,97657.86
2019-02-08T03:02:23.848Z,97657.12
2019-02-08T03:04:51.236Z,97665.70
2019-02-08T03:07:18.631Z,97649.86
2019-02-08T03:09:46.114Z,97637.96
2019-02-08T03:12:14.043Z,97644.67
2019-02-08T03:14:41.468Z,97649.86
2019-02-08T03:17:08.928Z,97645.45
2019-02-08T03:19:36.338Z,97649.08
2019-02-08T03:22:03.746Z,97642.41
2019-02-08T03:24:31.150Z,97640.10
2019-02-08T03:26:58.582Z,97639.68
2019-02-08T03:29:26.008Z,97636.25
2019-02-08T03:31:53.471Z,97642.14
2019-02-08T03:34:20.928Z,97642.14
2019-02-08T03:36:48.312Z,97638.58
2019-02-08T03:39:15.707Z,97639.88
2019-02-08T03:41:44.123Z,97639.19
2019-02-08T03:44:11.508Z,97639.26
2019-02-08T03:46:38.892Z,97631.19
2019-02-08T03:49:06.351Z,97639.94
2019-02-08T03:51:33.771Z,97637.34
2019-02-08T03:54:01.175Z,97644.83
2019-02-08T03:56:28.578Z,97640.16
2019-02-08T03:58:55.988Z,97646.13
2019-02-08T04:01:23.568Z,97647.42
2019-02-08T04:03:50.947Z,97641.25
2019-02-08T04:06:18.357Z,97638.80
2019-02-08T04:08:45.747Z,97635.30
2019-02-08T04:11:13.198Z,97627.77
2019-02-08T04:13:41.063Z,97626.02
2019-02-08T04:16:08.475Z,97627.38
2019-02-08T04:18:35.982Z,97613.78
2019-02-08T04:21:03.643Z,97613.84
2019-02-08T04:23:31.102Z,97613.20
2019-02-08T04:25:58.481Z,97609.36
2019-02-08T04:28:25.895Z,97616.34
2019-02-08T04:30:53.291Z,97611.28
2019-02-08T04:33:20.928Z,97607.10
2019-02-08T04:35:48.352Z,97596.73
2019-02-08T04:38:15.769Z,97602.34
2019-02-08T04:40:43.210Z,97599.36
2019-02-08T04:43:10.668Z,97602.07
2019-02-08T04:45:38.078Z,97598.91
2019-02-08T04:48:05.468Z,97599.50
2019-02-08T04:50:33.129Z,97605.28
2019-02-08T04:53:00.504Z,97613.56
2019-02-08T04:55:27.945Z,97600.61
2019-02-08T04:57:55.377Z,97606.88
2019-02-08T05:00:38.551Z,97599.45
2019-02-08T05:03:05.951Z,97602.44
2019-02-08T05:05:33.355Z,97596.95
2019-02-08T05:08:00.776Z,97598.24
2019-02-08T05:10:28.346Z,97591.88
2019-02-08T05:12:55.751Z,97592.25
2019-02-08T05:15:23.313Z,97582.42
2019-02-08T05:17:50.577Z,97590.31
2019-02-08T05:20:18.688Z,97586.06
2019-02-08T05:22:46.090Z,97585.55
2019-02-08T05:25:13.514Z,97587.75
2019-02-08T05:27:40.918Z,97582.27
2019-02-08T05:30:13.126Z,97585.64
2019-02-08T05:32:40.625Z,97587.66
2019-02-08T05:35:08.041Z,97584.66
2019-02-08T05:37:35.453Z,97582.23
2019-02-08T05:40:02.960Z,97586.16
2019-02-08T05:42:30.364Z,97586.13
2019-02-08T05:44:57.767Z,97575.77
2019-02-08T05:47:25.174Z,97577.99
2019-02-08T05:49:52.672Z,97575.16
2019-02-08T05:52:20.663Z,97576.51
2019-02-08T05:54:54.231Z,97582.05
2019-02-08T05:57:15.487Z,97579.46
2019-02-08T05:59:42.927Z,97579.91
2019-02-08T06:02:10.701Z,97574.65
2019-02-08T06:04:38.154Z,97571.39
2019-02-08T06:07:05.561Z,97571.81
2019-02-08T06:09:32.962Z,97577.50
2019-02-08T06:12:00.392Z,97588.64
2019-02-08T06:14:27.803Z,97585.15
2019-02-08T06:16:55.217Z,97588.21
2019-02-08T06:19:22.634Z,97592.23
2019-02-08T06:21:50.088Z,97587.96
2019-02-08T06:24:17.527Z,97583.55
2019-02-08T06:26:44.959Z,97587.40
2019-02-08T06:29:12.436Z,97584.89
2019-02-08T06:31:39.857Z,97585.77
2019-02-08T06:34:07.339Z,97590.02
2019-02-08T06:36:34.755Z,97590.50
2019-02-08T06:39:02.167Z,97592.37
2019-02-08T06:41:29.553Z,97590.05
2019-02-08T06:43:56.971Z,97595.61
2019-02-08T06:46:24.369Z,97588.39
2019-02-08T06:48:51.806Z,97602.63
2019-02-08T06:51:19.250Z,97602.56
2019-02-08T06:53:46.683Z,97602.39
2019-02-08T06:56:14.099Z,97594.83
2019-02-08T06:58:41.506Z,97597.95
2019-02-08T07:01:15.462Z,97600.34
2019-02-08T07:03:48.391Z,97602.84
2019-02-08T07:06:16.562Z,97606.34
2019-02-08T07:08:50.372Z,97603.69
2019-02-08T07:11:19.156Z,97605.69
2019-02-08T07:14:04.432Z,97614.07
2019-02-08T07:19:31.634Z,97624.20
2019-02-08T07:21:59.030Z,97614.62
2019-02-08T07:24:26.859Z,97612.96
2019-02-08T07:27:09.983Z,97620.05
2019-02-08T07:32:30.088Z,97619.26
2019-02-08T07:34:58.435Z,97613.10
2019-02-08T07:37:31.421Z,97620.81
2019-02-08T07:40:13.715Z,97618.94
2019-02-08T07:42:45.827Z,97617.54
2019-02-08T07:45:13.507Z,97619.02
2019-02-08T07:47:55.887Z,97616.92
2019-02-08T07:50:23.654Z,97614.52
2019-02-08T07:52:55.382Z,97623.16
2019-02-08T07:55:26.065Z,97621.80
2019-02-08T07:57:52.163Z,97616.59
2019-02-08T08:03:15.648Z,97615.12
2019-02-08T08:05:48.666Z,97613.73
2019-02-08T08:08:16.186Z,97616.58
2019-02-08T08:10:44.623Z,97622.77
2019-02-08T08:13:17.849Z,97617.89
2019-02-08T08:15:47.779Z,97613.38
2019-02-08T08:18:20.654Z,97610.11
2019-02-08T08:20:52.623Z,97614.95
2019-02-08T08:23:21.315Z,97617.23
2019-02-08T08:25:50.097Z,97617.89
2019-02-08T08:28:19.894Z,97608.05
2019-02-08T08:30:58.048Z,97605.80
2019-02-08T08:33:36.955Z,97608.84
2019-02-08T08:36:19.111Z,97613.11
2019-02-08T08:38:50.010Z,97599.23
2019-02-08T08:41:36.069Z,97601.30
2019-02-08T08:44:18.336Z,97602.25
2019-02-08T08:46:52.287Z,97600.65
2019-02-08T08:49:34.592Z,97597.32
2019-02-08T08:52:09.638Z,97591.91
2019-02-08T08:54:43.496Z,97591.72
2019-02-08T08:57:15.729Z,97589.91
2019-02-08T08:59:49.563Z,97598.22
2019-02-08T09:02:21.388Z,97594.33
2019-02-08T09:05:03.280Z,97599.48
2019-02-08T09:10:42.330Z,97608.14
2019-02-08T09:13:26.369Z,97610.12
2019-02-08T09:16:02.731Z,97608.11
2019-02-08T09:18:40.907Z,97608.23
2019-02-08T09:21:12.742Z,97603.05
2019-02-08T09:24:00.560Z,97592.27
2019-02-08T09:26:33.546Z,97595.47
2019-02-08T09:32:32.488Z,97589.88
2019-02-08T09:38:12.587Z,97578.59
2019-02-08T09:41:01.783Z,97579.52
2019-02-08T09:43:50.061Z,97578.53
2019-02-08T09:46:29.268Z,97572.40
2019-02-08T09:49:12.372Z,97572.69
2019-02-08T09:51:47.344Z,97572.08
2019-02-08T09:54:15.118Z,97570.30
2019-02-08T09:57:09.297Z,97568.08
2019-02-08T09:59:48.698Z,97575.80
2019-02-08T10:05:26.891Z,97567.36
2019-02-08T10:08:00.923Z,97562.20
2019-02-08T10:10:47.028Z,97560.91
2019-02-08T10:16:27.736Z,97553.79
2019-02-08T10:19:06.833Z,97546.42
2019-02-08T10:21:39.201Z,97550.75
2019-02-08T10:27:23.924Z,97545.88
2019-02-08T10:30:09.979Z,97543.05
2019-02-08T10:35:59.809Z,97546.61
2019-02-08T10:41:37.651Z,97534.45
2019-02-08T10:44:12.568Z,97532.80
2019-02-08T10:49:54.503Z,97514.56
2019-02-08T10:52:33.738Z,97512.55
2019-02-08T10:58:32.501Z,97509.70
2019-02-08T11:01:11.547Z,97505.00
2019-02-08T11:03:55.591Z,97503.13
2019-02-08T11:13:03.422Z,97481.45
2019-02-08T11:18:43.366Z,97471.63
2019-02-08T11:21:10.969Z,97473.39
2019-02-08T11:23:38.374Z,97469.13
2019-02-08T11:26:05.803Z,97475.03
2019-02-08T11:28:33.392Z,97472.06
2019-02-08T11:31:00.783Z,97463.57
2019-02-08T11:33:28.190Z,97465.78
2019-02-08T11:35:56.269Z,97456.15
2019-02-08T11:38:24.274Z,97455.34
2019-02-08T11:40:51.689Z,97447.37
2019-02-08T11:43:19.095Z,97446.23
2019-02-08T11:45:46.540Z,97444.14
2019-02-08T11:48:13.946Z,97435.97
2019-02-08T11:50:41.414Z,97418.01
2019-02-08T11:53:08.867Z,97417.10
2019-02-08T11:55:36.312Z,97417.23
2019-02-08T11:58:03.721Z,97420.32
2019-02-08T12:00:33.134Z,97414.45
2019-02-08T12:03:00.536Z,97405.81
2019-02-08T12:05:27.999Z,97398.44
2019-02-08T12:07:55.749Z,97399.62
2019-02-08T12:10:23.245Z,97393.03
2019-02-08T12:12:50.729Z,97392.16
2019-02-08T12:15:18.211Z,97391.06
2019-02-08T12:17:45.673Z,97393.28
2019-02-08T12:20:13.095Z,97397.11
2019-02-08T12:22:40.499Z,97387.81
2019-02-08T12:25:10.247Z,97384.70
2019-02-08T12:27:37.716Z,97372.98
2019-02-08T12:30:08.093Z,97369.28
2019-02-08T12:32:35.595Z,97372.98
2019-02-08T12:35:03.096Z,97366.69
2019-02-08T12:37:30.547Z,97357.17
2019-02-08T12:39:58.012Z,97347.13
2019-02-08T12:42:25.462Z,97331.09
2019-02-08T12:44:52.925Z,97335.94
2019-02-08T12:47:20.328Z,97331.53
2019-02-08T12:49:47.877Z,97334.44
2019-02-08T12:52:15.432Z,97331.58
2019-02-08T12:54:42.853Z,97323.95
2019-02-08T12:57:10.240Z,97329.88
2019-02-08T12:59:37.652Z,97326.55
2019-02-08T13:02:05.111Z,97323.02
2019-02-08T13:04:32.536Z,97317.59
2019-02-08T13:06:59.953Z,97321.56
2019-02-08T13:09:27.396Z,97308.09
2019-02-08T13:11:54.884Z,97308.47
2019-02-08T13:14:22.309Z,97305.13
2019-02-08T13:16:49.719Z,97299.72
2019-02-08T13:19:17.181Z,97291.50
2019-02-08T13:21:44.576Z,97295.17
2019-02-08T13:24:11.996Z,97278.09
2019-02-08T13:26:39.407Z,97274.04
2019-02-08T13:29:06.878Z,97276.03
2019-02-08T13:31:34.304Z,97280.32
2019-02-08T13:34:01.727Z,97267.28
2019-02-08T13:36:29.137Z,97255.13
2019-02-08T13:38:56.570Z,97244.14
2019-02-08T13:41:23.963Z,97257.45
2019-02-08T13:43:51.483Z,97265.30
2019-02-08T13:46:19.030Z,97260.86
2019-02-08T13:48:46.601Z,97269.28
2019-02-08T13:51:14.065Z,97271.52
2019-02-08T13:53:41.522Z,97269.98
2019-02-08T13:56:08.946Z,97262.33
2019-02-08T13:58:36.338Z,97256.44
2019-02-08T14:01:03.799Z,97260.97
2019-02-08T14:03:31.194Z,97258.69
2019-02-08T14:05:58.652Z,97254.57
2019-02-08T14:08:26.053Z,97251.52
2019-02-08T14:10:53.464Z,97253.39
2019-02-08T14:13:20.858Z,97245.73
2019-02-08T14:15:48.263Z,97235.75
2019-02-08T14:18:15.692Z,97232.02
2019-02-08T14:20:43.141Z,97222.15
2019-02-08T14:23:10.787Z,97219.89
2019-02-08T14:25:38.258Z,97224.52
2019-02-08T14:28:05.708Z,97230.33
2019-02-08T14:30:35.739Z,97222.42
2019-02-08T14:33:03.175Z,97218.86
2019-02-08T14:35:30.666Z,97224.77
2019-02-08T14:37:58.618Z,97215.59
2019-02-08T14:40:26.016Z,97215.88
2019-02-08T14:42:53.441Z,97218.08
2019-02-08T14:45:20.868Z,97219.53
2019-02-08T14:47:48.311Z,97219.33
2019-02-08T14:50:31.996Z,97216.43
2019-02-08T14:52:59.471Z,97208.29
2019-02-08T14:55:26.914Z,97207.05
2019-02-08T14:57:54.320Z,97198.05
2019-02-08T15:00:22.553Z,97197.58
2019-02-08T15:02:50.002Z,97198.55
2019-02-08T15:05:17.472Z,97205.64
2019-02-08T15:07:45.098Z,97210.39
2019-02-08T15:10:28.306Z,97208.67
2019-02-08T15:12:55.751Z,97205.01
2019-02-08T15:15:23.188Z,97192.73
2019-02-08T15:17:50.603Z,97197.83
2019-02-08T15:20:19.738Z,97195.33
2019-02-08T15:22:47.152Z,97193.55
2019-02-08T15:25:14.625Z,97190.70
2019-02-08T15:27:42.617Z,97183.59
2019-02-08T15:30:10.068Z,97180.70
2019-02-08T15:32:37.502Z,97181.18
2019-02-08T15:35:04.916Z,97172.42
2019-02-08T15:37:32.360Z,97176.09
2019-02-08T15:39:59.971Z,97170.22
2019-02-08T15:42:27.426Z,97156.81
2019-02-08T15:44:54.883Z,97165.23
2019-02-08T15:47:22.388Z,97166.83
2019-02-08T15:49:49.853Z,97168.30
2019-02-08T15:52:17.276Z,97167.91
2019-02-08T15:54:44.723Z,97159.80
2019-02-08T15:57:12.258Z,97157.27
2019-02-08T15:59:39.705Z,97158.87
2019-02-08T16:02:07.150Z,97151.45
2019-02-08T16:04:34.645Z,97152.77
2019-02-08T16:07:02.054Z,97158.87
2019-02-08T16:09:29.595Z,97161.09
2019-02-08T16:11:56.981Z,97154.73
2019-02-08T16:14:25.232Z,97147.30
2019-02-08T16:16:52.847Z,97151.67
2019-02-08T16:19:20.326Z,97142.94
2019-02-08T16:21:47.909Z,97147.13
2019-02-08T16:24:15.540Z,97145.75
2019-02-08T16:26:42.943Z,97140.60
2019-02-08T16:29:10.448Z,97137.53
2019-02-08T16:31:38.217Z,97141.98
2019-02-08T16:34:05.677Z,97137.77
2019-02-08T16:36:33.132Z,97141.56
2019-02-08T16:39:00.615Z,97141.80
2019-02-08T16:41:28.130Z,97138.86
2019-02-08T16:43:55.624Z,97141.77
2019-02-08T16:46:23.059Z,97139.23
2019-02-08T16:48:50.521Z,97141.55
2019-02-08T16:51:18.004Z,97144.38
2019-02-08T16:53:53.079Z,97144.75
2019-02-08T16:56:13.064Z,97146.41
2019-02-08T16:58:40.557Z,97145.77
2019-02-08T17:01:08.215Z,97147.55
2019-02-08T17:03:35.614Z,97149.09
2019-02-08T17:06:03.345Z,97152.25
2019-02-08T17:08:31.413Z,97153.00
2019-02-08T17:10:58.840Z,97148.80
2019-02-08T17:13:26.235Z,97152.29
2019-02-08T17:15:53.681Z,97152.29
2019-02-08T17:18:21.073Z,97152.53
2019-02-08T17:20:48.489Z,97154.62
2019-02-08T17:23:15.947Z,97149.40
2019-02-08T17:25:43.359Z,97159.83
2019-02-08T17:28:10.792Z,97151.05
2019-02-08T17:30:38.223Z,97152.66
2019-02-08T17:33:05.639Z,97150.41
2019-02-08T17:35:33.064Z,97145.31
2019-02-08T17:38:00.563Z,97147.72
2019-02-08T17:40:30.366Z,97152.54
2019-02-08T17:42:57.812Z,97146.44
2019-02-08T17:45:25.281Z,97149.91
2019-02-08T17:47:52.747Z,97154.00
2019-02-08T17:50:21.712Z,97153.46
2019-02-08T17:52:49.128Z,97151.50
2019-02-08T17:55:16.662Z,97151.83
2019-02-08T17:57:44.120Z,97150.34
2019-02-08T18:00:12.866Z,97150.20
2019-02-08T18:02:40.303Z,97149.19
2019-02-08T18:05:07.718Z,97155.97
2019-02-08T18:07:35.212Z,97151.78
2019-02-08T18:10:02.879Z,97152.58
2019-02-08T18:12:32.504Z,97155.68
2019-02-08T18:14:57.745Z,97157.25
2019-02-08T18:17:25.142Z,97149.79
2019-02-08T18:19:52.537Z,97159.49
2019-02-08T18:22:19.930Z,97152.72
2019-02-08T18:24:47.355Z,97161.16
2019-02-08T18:27:14.755Z,97156.02
2019-02-08T18:29:42.597Z,97154.97
2019-02-08T18:32:10.084Z,97150.44
2019-02-08T18:34:37.552Z,97155.70
2019-02-08T18:37:05.039Z,97146.86
2019-02-08T18:39:32.664Z,97151.34
2019-02-08T18:42:00.111Z,97158.83
2019-02-08T18:44:27.502Z,97150.97
2019-02-08T18:46:54.906Z,97146.43
2019-02-08T18:49:22.667Z,97148.84
2019-02-08T18:51:50.112Z,97146.95
2019-02-08T18:54:17.507Z,97151.48
2019-02-08T18:56:45.199Z,97153.72
2019-02-08T18:59:12.622Z,97154.91
2019-02-08T19:01:40.115Z,97154.24
2019-02-08T19:04:07.757Z,97162.38
2019-02-08T19:06:35.151Z,97158.21
2019-02-08T19:09:02.560Z,97157.95
2019-02-08T19:11:29.961Z,97151.44
2019-02-08T19:13:57.690Z,97147.84
2019-02-08T19:16:25.136Z,97159.05
2019-02-08T19:18:52.539Z,97158.93
2019-02-08T19:21:19.948Z,97158.93
2019-02-08T19:23:47.423Z,97159.77
2019-02-08T19:26:14.886Z,97155.45
2019-02-08T19:28:42.339Z,97143.84
2019-02-08T19:31:09.778Z,97155.98
2019-02-08T19:33:37.252Z,97150.46
2019-02-08T19:36:04.630Z,97152.06
2019-02-08T19:38:32.117Z,97159.24
2019-02-08T19:40:59.528Z,97153.56
2019-02-08T19:43:27.019Z,97144.41
2019-02-08T19:45:54.379Z,97140.71
2019-02-08T19:48:21.801Z,97149.77
2019-02-08T19:50:49.227Z,97145.77
2019-02-08T19:53:16.670Z,97143.72
2019-02-08T19:55:44.110Z,97140.02
2019-02-08T19:58:11.740Z,97133.89
2019-02-08T20:00:40.008Z,97138.66
2019-02-08T20:03:07.424Z,97131.48
2019-02-08T20:05:34.835Z,97138.97
2019-02-08T20:08:02.282Z,97142.87
2019-02-08T20:10:30.624Z,97144.05
2019-02-08T20:12:58.085Z,97139.57
2019-02-08T20:15:25.483Z,97134.61
2019-02-08T20:17:52.893Z,97133.77
2019-02-08T20:20:20.275Z,97127.37
2019-02-08T20:22:47.678Z,97134.30
2019-02-08T20:25:18.745Z,97135.28
2019-02-08T20:27:46.162Z,97132.11
2019-02-08T20:30:17.240Z,97137.78
2019-02-08T20:32:44.714Z,97138.29
2019-02-08T20:35:13.807Z,97151.08
2019-02-08T20:37:42.101Z,97163.75
2019-02-08T20:40:10.150Z,97170.86
2019-02-08T20:42:37.558Z,97175.05
2019-02-08T20:45:08.026Z,97171.89
2019-02-08T20:47:35.420Z,97164.85
2019-02-08T20:50:02.878Z,97162.04
2019-02-08T20:52:30.322Z,97158.56
2019-02-08T20:54:57.733Z,97154.89
2019-02-08T20:57:25.181Z,97144.83
2019-02-08T20:59:52.668Z,97140.74
2019-02-08T21:02:20.133Z,97148.95
2019-02-08T21:04:47.540Z,97142.75
2019-02-08T21:07:14.958Z,97133.60
2019-02-08T21:09:42.393Z,97121.83
2019-02-08T21:12:09.971Z,97134.90
2019-02-08T21:14:37.368Z,97143.06
2019-02-08T21:17:04.883Z,97137.86
2019-02-08T21:19:32.271Z,97140.41
2019-02-08T21:21:59.668Z,97145.52
2019-02-08T21:24:27.150Z,97151.05
2019-02-08T21:26:54.707Z,97161.80
2019-02-08T21:29:22.175Z,97156.52
2019-02-08T21:31:49.623Z,97147.80
2019-02-08T21:34:17.027Z,97148.45
2019-02-08T21:36:44.451Z,97154.52
2019-02-08T21:39:11.854Z,97154.67
2019-02-08T21:41:39.369Z,97160.95
2019-02-08T21:44:06.819Z,97156.05
2019-02-08T21:46:37.287Z,97157.61
2019-02-08T21:49:04.758Z,97154.85
2019-02-08T21:51:32.217Z,97158.13
2019-02-08T21:53:59.654Z,97163.42
2019-02-08T21:56:27.074Z,97156.78
2019-02-08T21:58:55.332Z,97164.70
2019-02-08T22:01:22.747Z,97160.02
2019-02-08T22:03:50.169Z,97151.63
2019-02-08T22:06:17.729Z,97143.87
2019-02-08T22:08:45.371Z,97140.72
2019-02-08T22:11:12.768Z,97137.42
2019-02-08T22:13:40.255Z,97138.87
2019-02-08T22:16:07.736Z,97140.48
2019-02-08T22:18:35.156Z,97139.18
2019-02-08T22:21:02.574Z,97134.86
2019-02-08T22:23:29.993Z,97126.09
2019-02-08T22:25:57.495Z,97125.68
2019-02-08T22:28:24.933Z,97140.84
2019-02-08T22:30:52.333Z,97147.89
2019-02-08T22:33:19.814Z,97146.77
2019-02-08T22:35:47.221Z,97129.48
2019-02-08T22:38:14.679Z,97126.03
2019-02-08T22:40:42.094Z,97134.67
2019-02-08T22:43:09.490Z,97131.78
2019-02-08T22:45:37.543Z,97129.83
2019-02-08T22:48:04.936Z,97111.88
2019-02-08T22:50:32.360Z,97110.00
2019-02-08T22:52:59.750Z,97114.44
2019-02-08T22:55:28.769Z,97114.84
2019-02-08T22:57:56.369Z,97099.23
2019-02-08T23:03:23.816Z,97093.50
2019-02-08T23:05:51.216Z,97101.88
2019-02-08T23:08:18.663Z,97103.54
2019-02-08T23:10:46.111Z,97104.59
2019-02-08T23:13:13.497Z,97105.52
2019-02-08T23:15:41.814Z,97105.31
2019-02-08T23:18:09.931Z,97098.08
2019-02-08T23:20:37.347Z,97097.36
2019-02-08T23:23:04.730Z,97092.66
2019-02-08T23:25:32.139Z,97090.95
2019-02-08T23:27:59.744Z,97087.93
2019-02-08T23:30:27.207Z,97085.96
2019-02-08T23:32:54.601Z,97089.80
2019-02-08T23:35:22.120Z,97088.04
2019-02-08T23:37:49.603Z,97085.70
2019-02-08T23:40:16.998Z,97077.05
2019-02-08T23:42:44.454Z,97080.70
2019-02-08T23:45:15.664Z,97076.17
2019-02-08T23:47:43.376Z,97076.89
2019-02-08T23:50:13.537Z,97086.22
2019-02-08T23:52:40.934Z,97087.52
2019-02-08T23:55:08.346Z,97095.36
2019-02-08T23:57:36.603Z,97095.73
